Terminal Aerodrome Forecast
Issued by NWS

Home | Current Version | Previous Version | Text Only | Print | Product List | Glossary On
Versions: 1 2 3 4 5 6 7 8 9 10 11 12 13 14 15 16 17
000
FTUS44 KLZK 241100
TAFHRO
TAF
KHRO 241137Z 2412/2512 15008G16KT P6SM VCTS BKN025 OVC050CB
      TEMPO 2412/2416 4SM -TSRA BR OVC025CB
     FM241600 16008G18KT P6SM VCTS BKN050CB OVC100
      TEMPO 2420/2424 3SM -TSRA BR OVC015CB
     FM250000 17010G20KT 5SM -TSRA BR OVC025CB
     FM250800 19008KT P6SM VCTS BKN050CB BKN100=

USA.gov is the U.S. government's official web portal to all federal, state and local government web resources and services.